sensor_id;sensor_type;location;lat;lon;timestamp;P1;durP1;ratioP1;P2;durP2;ratioP2
36383;SDS011;22418;51.210;6.976;2022-12-17T00:00:52;110.03;;;33.25;;
36383;SDS011;22418;51.210;6.976;2022-12-17T00:03:41;90.80;;;29.70;;
36383;SDS011;22418;51.210;6.976;2022-12-17T00:06:30;124.05;;;33.25;;
36383;SDS011;22418;51.210;6.976;2022-12-17T00:09:19;126.50;;;32.95;;
36383;SDS011;22418;51.210;6.976;2022-12-17T00:12:08;115.47;;;33.90;;
36383;SDS011;22418;51.210;6.976;2022-12-17T00:14:58;122.15;;;33.30;;
36383;SDS011;22418;51.210;6.976;2022-12-17T00:17:47;117.68;;;31.48;;
36383;SDS011;22418;51.210;6.976;2022-12-17T00:20:36;123.88;;;33.83;;
36383;SDS011;22418;51.210;6.976;2022-12-17T00:23:25;112.40;;;32.03;;
36383;SDS011;22418;51.210;6.976;2022-12-17T00:26:14;130.93;;;33.80;;
36383;SDS011;22418;51.210;6.976;2022-12-17T00:29:03;115.43;;;32.72;;
36383;SDS011;22418;51.210;6.976;2022-12-17T00:31:52;117.32;;;31.38;;
36383;SDS011;22418;51.210;6.976;2022-12-17T00:34:42;136.95;;;32.55;;
36383;SDS011;22418;51.210;6.976;2022-12-17T00:37:31;109.50;;;32.00;;
36383;SDS011;22418;51.210;6.976;2022-12-17T00:40:20;107.32;;;31.05;;
36383;SDS011;22418;51.210;6.976;2022-12-17T00:43:10;122.72;;;30.92;;
36383;SDS011;22418;51.210;6.976;2022-12-17T00:46:01;104.25;;;29.55;;
36383;SDS011;22418;51.210;6.976;2022-12-17T00:48:53;107.18;;;30.30;;
36383;SDS011;22418;51.210;6.976;2022-12-17T00:51:42;115.20;;;30.65;;
36383;SDS011;22418;51.210;6.976;2022-12-17T00:54:31;104.68;;;30.85;;
36383;SDS011;22418;51.210;6.976;2022-12-17T00:57:20;107.32;;;30.48;;
36383;SDS011;22418;51.210;6.976;2022-12-17T01:00:09;111.20;;;30.95;;
36383;SDS011;22418;51.210;6.976;2022-12-17T01:03:03;117.13;;;32.03;;
36383;SDS011;22418;51.210;6.976;2022-12-17T01:05:54;107.50;;;30.38;;
36383;SDS011;22418;51.210;6.976;2022-12-17T01:08:44;124.35;;;31.38;;
36383;SDS011;22418;51.210;6.976;2022-12-17T01:11:33;119.13;;;31.50;;
36383;SDS011;22418;51.210;6.976;2022-12-17T01:14:22;115.05;;;31.52;;
36383;SDS011;22418;51.210;6.976;2022-12-17T01:17:12;114.60;;;32.88;;
36383;SDS011;22418;51.210;6.976;2022-12-17T01:20:01;108.85;;;31.20;;
36383;SDS011;22418;51.210;6.976;2022-12-17T01:22:50;108.07;;;30.80;;
36383;SDS011;22418;51.210;6.976;2022-12-17T01:25:39;114.03;;;32.30;;
36383;SDS011;22418;51.210;6.976;2022-12-17T01:28:28;111.63;;;31.42;;
36383;SDS011;22418;51.210;6.976;2022-12-17T01:31:17;119.43;;;31.35;;
36383;SDS011;22418;51.210;6.976;2022-12-17T01:34:06;114.70;;;31.52;;
36383;SDS011;22418;51.210;6.976;2022-12-17T01:36:58;109.53;;;30.08;;
36383;SDS011;22418;51.210;6.976;2022-12-17T01:39:47;107.90;;;30.00;;
36383;SDS011;22418;51.210;6.976;2022-12-17T01:42:37;100.45;;;29.00;;
36383;SDS011;22418;51.210;6.976;2022-12-17T01:45:30;109.10;;;30.77;;
36383;SDS011;22418;51.210;6.976;2022-12-17T01:48:37;109.55;;;31.17;;
36383;SDS011;22418;51.210;6.976;2022-12-17T01:51:31;103.57;;;29.92;;
36383;SDS011;22418;51.210;6.976;2022-12-17T01:54:21;95.95;;;28.40;;
36383;SDS011;22418;51.210;6.976;2022-12-17T01:57:10;104.20;;;27.98;;
36383;SDS011;22418;51.210;6.976;2022-12-17T02:00:00;97.25;;;29.08;;
36383;SDS011;22418;51.210;6.976;2022-12-17T02:02:53;99.22;;;30.02;;
36383;SDS011;22418;51.210;6.976;2022-12-17T02:08:55;108.20;;;29.15;;
36383;SDS011;22418;51.210;6.976;2022-12-17T02:12:05;90.82;;;27.13;;
36383;SDS011;22418;51.210;6.976;2022-12-17T02:15:30;103.43;;;26.85;;
36383;SDS011;22418;51.210;6.976;2022-12-17T02:18:31;96.63;;;26.85;;
36383;SDS011;22418;51.210;6.976;2022-12-17T02:21:26;83.60;;;24.98;;
36383;SDS011;22418;51.210;6.976;2022-12-17T02:28:04;82.90;;;25.40;;
36383;SDS011;22418;51.210;6.976;2022-12-17T02:30:53;98.55;;;25.98;;
36383;SDS011;22418;51.210;6.976;2022-12-17T02:33:43;91.95;;;27.27;;
36383;SDS011;22418;51.210;6.976;2022-12-17T02:36:34;94.10;;;26.88;;
36383;SDS011;22418;51.210;6.976;2022-12-17T02:39:23;98.55;;;27.70;;
36383;SDS011;22418;51.210;6.976;2022-12-17T02:42:12;96.35;;;27.33;;
36383;SDS011;22418;51.210;6.976;2022-12-17T02:45:02;102.68;;;26.30;;
36383;SDS011;22418;51.210;6.976;2022-12-17T02:47:52;87.32;;;27.45;;
36383;SDS011;22418;51.210;6.976;2022-12-17T02:50:42;94.30;;;27.33;;
36383;SDS011;22418;51.210;6.976;2022-12-17T02:53:34;89.65;;;26.63;;
36383;SDS011;22418;51.210;6.976;2022-12-17T02:56:28;97.18;;;25.80;;
36383;SDS011;22418;51.210;6.976;2022-12-17T02:59:18;101.93;;;26.48;;
36383;SDS011;22418;51.210;6.976;2022-12-17T03:02:07;96.78;;;28.08;;
36383;SDS011;22418;51.210;6.976;2022-12-17T03:04:56;102.03;;;28.48;;
36383;SDS011;22418;51.210;6.976;2022-12-17T03:07:45;96.65;;;26.83;;
36383;SDS011;22418;51.210;6.976;2022-12-17T03:10:34;97.40;;;24.95;;
36383;SDS011;22418;51.210;6.976;2022-12-17T03:13:24;103.75;;;27.10;;
36383;SDS011;22418;51.210;6.976;2022-12-17T03:16:15;85.35;;;24.83;;
36383;SDS011;22418;51.210;6.976;2022-12-17T03:19:05;103.57;;;26.97;;
36383;SDS011;22418;51.210;6.976;2022-12-17T03:21:56;88.68;;;25.05;;
36383;SDS011;22418;51.210;6.976;2022-12-17T03:24:45;97.88;;;25.65;;
36383;SDS011;22418;51.210;6.976;2022-12-17T03:27:35;96.05;;;25.83;;
36383;SDS011;22418;51.210;6.976;2022-12-17T03:30:24;94.75;;;25.42;;
36383;SDS011;22418;51.210;6.976;2022-12-17T03:33:13;89.55;;;25.55;;
36383;SDS011;22418;51.210;6.976;2022-12-17T03:36:02;91.47;;;25.67;;
36383;SDS011;22418;51.210;6.976;2022-12-17T03:38:51;93.03;;;25.55;;
36383;SDS011;22418;51.210;6.976;2022-12-17T03:41:40;94.35;;;25.55;;
36383;SDS011;22418;51.210;6.976;2022-12-17T03:44:29;90.10;;;25.33;;
36383;SDS011;22418;51.210;6.976;2022-12-17T03:47:18;87.10;;;24.95;;
36383;SDS011;22418;51.210;6.976;2022-12-17T03:50:07;95.63;;;25.80;;
36383;SDS011;22418;51.210;6.976;2022-12-17T03:52:57;94.75;;;25.85;;
36383;SDS011;22418;51.210;6.976;2022-12-17T03:55:47;94.32;;;26.85;;
36383;SDS011;22418;51.210;6.976;2022-12-17T03:58:37;97.18;;;25.40;;
36383;SDS011;22418;51.210;6.976;2022-12-17T04:01:33;82.93;;;24.58;;
36383;SDS011;22418;51.210;6.976;2022-12-17T04:04:22;88.05;;;25.38;;
36383;SDS011;22418;51.210;6.976;2022-12-17T04:07:12;93.93;;;24.90;;
36383;SDS011;22418;51.210;6.976;2022-12-17T04:10:01;77.10;;;24.73;;
36383;SDS011;22418;51.210;6.976;2022-12-17T04:12:50;76.53;;;22.90;;
36383;SDS011;22418;51.210;6.976;2022-12-17T04:15:39;81.82;;;22.77;;
36383;SDS011;22418;51.210;6.976;2022-12-17T04:18:28;83.28;;;23.52;;
36383;SDS011;22418;51.210;6.976;2022-12-17T04:21:17;89.28;;;24.98;;
36383;SDS011;22418;51.210;6.976;2022-12-17T04:24:06;74.10;;;22.88;;
36383;SDS011;22418;51.210;6.976;2022-12-17T04:26:55;82.35;;;24.30;;
36383;SDS011;22418;51.210;6.976;2022-12-17T04:29:44;79.05;;;22.85;;
36383;SDS011;22418;51.210;6.976;2022-12-17T04:32:34;84.45;;;25.05;;
36383;SDS011;22418;51.210;6.976;2022-12-17T04:35:25;80.15;;;23.60;;
36383;SDS011;22418;51.210;6.976;2022-12-17T04:38:14;91.70;;;24.83;;
36383;SDS011;22418;51.210;6.976;2022-12-17T04:41:03;73.07;;;22.35;;
36383;SDS011;22418;51.210;6.976;2022-12-17T04:43:52;80.50;;;23.02;;
36383;SDS011;22418;51.210;6.976;2022-12-17T04:46:41;61.15;;;22.02;;
36383;SDS011;22418;51.210;6.976;2022-12-17T04:49:30;73.55;;;21.48;;
36383;SDS011;22418;51.210;6.976;2022-12-17T04:52:20;63.08;;;20.63;;
36383;SDS011;22418;51.210;6.976;2022-12-17T04:55:09;66.30;;;20.50;;
36383;SDS011;22418;51.210;6.976;2022-12-17T04:58:04;68.95;;;21.65;;
36383;SDS011;22418;51.210;6.976;2022-12-17T05:00:54;68.03;;;21.05;;
36383;SDS011;22418;51.210;6.976;2022-12-17T05:03:43;74.22;;;22.55;;
36383;SDS011;22418;51.210;6.976;2022-12-17T05:06:32;72.43;;;22.48;;
36383;SDS011;22418;51.210;6.976;2022-12-17T05:09:21;79.20;;;22.83;;
36383;SDS011;22418;51.210;6.976;2022-12-17T05:12:10;73.00;;;22.15;;
36383;SDS011;22418;51.210;6.976;2022-12-17T05:15:01;70.63;;;21.60;;
36383;SDS011;22418;51.210;6.976;2022-12-17T05:17:51;72.20;;;21.45;;
36383;SDS011;22418;51.210;6.976;2022-12-17T05:20:40;73.13;;;22.25;;
36383;SDS011;22418;51.210;6.976;2022-12-17T05:23:29;73.25;;;22.75;;
36383;SDS011;22418;51.210;6.976;2022-12-17T05:26:21;75.57;;;24.05;;
36383;SDS011;22418;51.210;6.976;2022-12-17T05:29:12;89.88;;;24.38;;
36383;SDS011;22418;51.210;6.976;2022-12-17T05:32:01;72.45;;;22.48;;
36383;SDS011;22418;51.210;6.976;2022-12-17T05:34:50;77.47;;;23.77;;
36383;SDS011;22418;51.210;6.976;2022-12-17T05:37:39;74.88;;;20.98;;
36383;SDS011;22418;51.210;6.976;2022-12-17T05:40:28;69.97;;;23.33;;
36383;SDS011;22418;51.210;6.976;2022-12-17T05:43:17;77.88;;;22.55;;
36383;SDS011;22418;51.210;6.976;2022-12-17T05:46:23;81.85;;;23.67;;
36383;SDS011;22418;51.210;6.976;2022-12-17T05:49:12;75.35;;;22.15;;
36383;SDS011;22418;51.210;6.976;2022-12-17T05:52:01;73.38;;;22.42;;
36383;SDS011;22418;51.210;6.976;2022-12-17T05:54:50;71.15;;;22.95;;
36383;SDS011;22418;51.210;6.976;2022-12-17T05:57:39;69.38;;;22.25;;
36383;SDS011;22418;51.210;6.976;2022-12-17T06:00:28;66.55;;;21.98;;
36383;SDS011;22418;51.210;6.976;2022-12-17T06:03:17;75.53;;;21.20;;
36383;SDS011;22418;51.210;6.976;2022-12-17T06:06:06;69.97;;;22.45;;
36383;SDS011;22418;51.210;6.976;2022-12-17T06:08:55;64.68;;;20.90;;
36383;SDS011;22418;51.210;6.976;2022-12-17T06:11:45;74.15;;;22.67;;
36383;SDS011;22418;51.210;6.976;2022-12-17T06:14:34;66.80;;;20.38;;
36383;SDS011;22418;51.210;6.976;2022-12-17T06:17:23;71.38;;;20.88;;
36383;SDS011;22418;51.210;6.976;2022-12-17T06:20:15;63.30;;;20.52;;
36383;SDS011;22418;51.210;6.976;2022-12-17T06:23:08;58.20;;;19.38;;
36383;SDS011;22418;51.210;6.976;2022-12-17T06:25:58;68.85;;;20.88;;
36383;SDS011;22418;51.210;6.976;2022-12-17T06:28:47;50.53;;;17.95;;
36383;SDS011;22418;51.210;6.976;2022-12-17T06:31:36;51.20;;;17.38;;
36383;SDS011;22418;51.210;6.976;2022-12-17T06:34:25;53.17;;;17.20;;
36383;SDS011;22418;51.210;6.976;2022-12-17T06:37:14;52.85;;;17.58;;
36383;SDS011;22418;51.210;6.976;2022-12-17T06:40:04;52.28;;;17.23;;
36383;SDS011;22418;51.210;6.976;2022-12-17T06:42:54;56.92;;;17.70;;
36383;SDS011;22418;51.210;6.976;2022-12-17T06:45:44;52.42;;;17.90;;
36383;SDS011;22418;51.210;6.976;2022-12-17T06:48:33;56.10;;;17.95;;
36383;SDS011;22418;51.210;6.976;2022-12-17T06:51:22;48.10;;;15.95;;
36383;SDS011;22418;51.210;6.976;2022-12-17T06:54:11;55.28;;;16.67;;
36383;SDS011;22418;51.210;6.976;2022-12-17T06:57:00;50.47;;;16.67;;
36383;SDS011;22418;51.210;6.976;2022-12-17T06:59:49;51.80;;;17.42;;
36383;SDS011;22418;51.210;6.976;2022-12-17T07:02:38;43.42;;;14.90;;
36383;SDS011;22418;51.210;6.976;2022-12-17T07:05:27;50.45;;;17.85;;
36383;SDS011;22418;51.210;6.976;2022-12-17T07:08:17;45.90;;;14.95;;
36383;SDS011;22418;51.210;6.976;2022-12-17T07:11:06;52.80;;;17.23;;
36383;SDS011;22418;51.210;6.976;2022-12-17T07:13:55;47.90;;;15.70;;
36383;SDS011;22418;51.210;6.976;2022-12-17T07:16:44;43.28;;;14.65;;
36383;SDS011;22418;51.210;6.976;2022-12-17T07:19:33;45.13;;;14.85;;
36383;SDS011;22418;51.210;6.976;2022-12-17T07:22:22;46.67;;;14.00;;
36383;SDS011;22418;51.210;6.976;2022-12-17T07:25:11;41.75;;;14.77;;
36383;SDS011;22418;51.210;6.976;2022-12-17T07:28:00;36.38;;;13.77;;
36383;SDS011;22418;51.210;6.976;2022-12-17T07:30:49;37.58;;;13.52;;
36383;SDS011;22418;51.210;6.976;2022-12-17T07:33:38;36.08;;;12.93;;
36383;SDS011;22418;51.210;6.976;2022-12-17T07:36:27;41.53;;;14.43;;
36383;SDS011;22418;51.210;6.976;2022-12-17T07:39:16;32.20;;;11.95;;
36383;SDS011;22418;51.210;6.976;2022-12-17T07:42:05;42.08;;;13.77;;
36383;SDS011;22418;51.210;6.976;2022-12-17T07:44:55;38.55;;;13.32;;
36383;SDS011;22418;51.210;6.976;2022-12-17T07:47:50;32.97;;;13.55;;
36383;SDS011;22418;51.210;6.976;2022-12-17T07:50:51;39.30;;;13.27;;
36383;SDS011;22418;51.210;6.976;2022-12-17T07:53:40;33.88;;;12.18;;
36383;SDS011;22418;51.210;6.976;2022-12-17T07:56:29;36.55;;;14.63;;
36383;SDS011;22418;51.210;6.976;2022-12-17T07:59:19;35.65;;;13.45;;
36383;SDS011;22418;51.210;6.976;2022-12-17T08:02:08;38.40;;;14.77;;
36383;SDS011;22418;51.210;6.976;2022-12-17T08:04:58;38.42;;;14.80;;
36383;SDS011;22418;51.210;6.976;2022-12-17T08:07:47;36.75;;;13.82;;
36383;SDS011;22418;51.210;6.976;2022-12-17T08:10:35;39.95;;;13.30;;
36383;SDS011;22418;51.210;6.976;2022-12-17T08:13:25;34.30;;;13.10;;
36383;SDS011;22418;51.210;6.976;2022-12-17T08:16:14;37.38;;;13.52;;
36383;SDS011;22418;51.210;6.976;2022-12-17T08:19:03;45.95;;;15.13;;
36383;SDS011;22418;51.210;6.976;2022-12-17T08:21:52;30.60;;;11.57;;
36383;SDS011;22418;51.210;6.976;2022-12-17T08:24:41;31.42;;;11.60;;
36383;SDS011;22418;51.210;6.976;2022-12-17T08:27:30;33.50;;;12.43;;
36383;SDS011;22418;51.210;6.976;2022-12-17T08:30:19;38.25;;;13.90;;
36383;SDS011;22418;51.210;6.976;2022-12-17T08:33:08;36.88;;;14.75;;
36383;SDS011;22418;51.210;6.976;2022-12-17T08:35:57;29.80;;;10.75;;
36383;SDS011;22418;51.210;6.976;2022-12-17T08:38:46;31.88;;;11.98;;
36383;SDS011;22418;51.210;6.976;2022-12-17T08:41:35;35.65;;;12.63;;
36383;SDS011;22418;51.210;6.976;2022-12-17T08:44:25;42.25;;;14.40;;
36383;SDS011;22418;51.210;6.976;2022-12-17T08:47:14;35.25;;;13.05;;
36383;SDS011;22418;51.210;6.976;2022-12-17T08:50:03;38.38;;;13.70;;
36383;SDS011;22418;51.210;6.976;2022-12-17T08:52:57;35.47;;;14.07;;
36383;SDS011;22418;51.210;6.976;2022-12-17T08:55:47;40.63;;;15.50;;
36383;SDS011;22418;51.210;6.976;2022-12-17T08:58:37;43.00;;;17.00;;
36383;SDS011;22418;51.210;6.976;2022-12-17T09:01:26;48.38;;;18.67;;
36383;SDS011;22418;51.210;6.976;2022-12-17T09:04:15;49.35;;;18.70;;
36383;SDS011;22418;51.210;6.976;2022-12-17T09:07:04;48.83;;;18.90;;
36383;SDS011;22418;51.210;6.976;2022-12-17T09:09:53;52.72;;;18.90;;
36383;SDS011;22418;51.210;6.976;2022-12-17T09:12:42;48.38;;;19.30;;
36383;SDS011;22418;51.210;6.976;2022-12-17T09:15:34;47.30;;;20.23;;
36383;SDS011;22418;51.210;6.976;2022-12-17T09:21:12;52.88;;;20.02;;
36383;SDS011;22418;51.210;6.976;2022-12-17T09:24:01;50.75;;;20.65;;
36383;SDS011;22418;51.210;6.976;2022-12-17T09:26:50;53.35;;;21.20;;
36383;SDS011;22418;51.210;6.976;2022-12-17T09:29:39;50.65;;;20.98;;
36383;SDS011;22418;51.210;6.976;2022-12-17T09:32:29;49.85;;;20.10;;
36383;SDS011;22418;51.210;6.976;2022-12-17T09:35:18;53.67;;;21.88;;
36383;SDS011;22418;51.210;6.976;2022-12-17T09:38:09;51.30;;;21.77;;
36383;SDS011;22418;51.210;6.976;2022-12-17T09:41:01;47.75;;;20.27;;
36383;SDS011;22418;51.210;6.976;2022-12-17T09:44:13;54.13;;;23.45;;
36383;SDS011;22418;51.210;6.976;2022-12-17T09:47:32;56.03;;;22.85;;
36383;SDS011;22418;51.210;6.976;2022-12-17T09:50:45;51.60;;;22.48;;
36383;SDS011;22418;51.210;6.976;2022-12-17T09:53:38;53.17;;;22.30;;
36383;SDS011;22418;51.210;6.976;2022-12-17T09:56:32;52.05;;;22.20;;
36383;SDS011;22418;51.210;6.976;2022-12-17T10:05:06;49.42;;;21.65;;
36383;SDS011;22418;51.210;6.976;2022-12-17T10:08:03;60.58;;;23.58;;
36383;SDS011;22418;51.210;6.976;2022-12-17T10:10:53;53.10;;;22.65;;
36383;SDS011;22418;51.210;6.976;2022-12-17T10:13:43;58.78;;;25.13;;
36383;SDS011;22418;51.210;6.976;2022-12-17T10:16:33;55.28;;;24.50;;
36383;SDS011;22418;51.210;6.976;2022-12-17T10:19:37;56.05;;;23.80;;
36383;SDS011;22418;51.210;6.976;2022-12-17T10:22:29;52.40;;;22.90;;
36383;SDS011;22418;51.210;6.976;2022-12-17T10:25:28;54.30;;;22.85;;
36383;SDS011;22418;51.210;6.976;2022-12-17T10:28:19;49.65;;;22.52;;
36383;SDS011;22418;51.210;6.976;2022-12-17T10:31:14;54.30;;;23.05;;
36383;SDS011;22418;51.210;6.976;2022-12-17T10:34:06;52.03;;;22.83;;
36383;SDS011;22418;51.210;6.976;2022-12-17T10:37:01;44.92;;;19.67;;
36383;SDS011;22418;51.210;6.976;2022-12-17T10:39:54;50.20;;;21.85;;
36383;SDS011;22418;51.210;6.976;2022-12-17T10:42:46;43.13;;;19.27;;
36383;SDS011;22418;51.210;6.976;2022-12-17T10:45:35;51.08;;;20.42;;
36383;SDS011;22418;51.210;6.976;2022-12-17T10:48:24;48.92;;;21.08;;
36383;SDS011;22418;51.210;6.976;2022-12-17T10:51:18;48.08;;;20.63;;
36383;SDS011;22418;51.210;6.976;2022-12-17T10:54:28;46.83;;;20.75;;
36383;SDS011;22418;51.210;6.976;2022-12-17T11:00:25;43.33;;;17.98;;
36383;SDS011;22418;51.210;6.976;2022-12-17T11:06:20;48.38;;;19.13;;
36383;SDS011;22418;51.210;6.976;2022-12-17T11:12:38;49.60;;;21.27;;
36383;SDS011;22418;51.210;6.976;2022-12-17T11:15:39;52.45;;;21.80;;
36383;SDS011;22418;51.210;6.976;2022-12-17T11:21:51;48.40;;;21.65;;
36383;SDS011;22418;51.210;6.976;2022-12-17T11:24:45;49.25;;;19.85;;
36383;SDS011;22418;51.210;6.976;2022-12-17T11:27:50;48.25;;;19.95;;
36383;SDS011;22418;51.210;6.976;2022-12-17T11:30:52;51.83;;;21.52;;
36383;SDS011;22418;51.210;6.976;2022-12-17T11:33:59;47.90;;;19.52;;
36383;SDS011;22418;51.210;6.976;2022-12-17T11:40:09;49.17;;;20.90;;
36383;SDS011;22418;51.210;6.976;2022-12-17T11:43:09;45.33;;;19.45;;
36383;SDS011;22418;51.210;6.976;2022-12-17T11:46:17;48.17;;;19.55;;
36383;SDS011;22418;51.210;6.976;2022-12-17T11:49:21;49.08;;;19.45;;
36383;SDS011;22418;51.210;6.976;2022-12-17T11:52:16;52.55;;;20.98;;
36383;SDS011;22418;51.210;6.976;2022-12-17T11:55:20;50.20;;;19.35;;
36383;SDS011;22418;51.210;6.976;2022-12-17T11:58:48;46.40;;;18.90;;
36383;SDS011;22418;51.210;6.976;2022-12-17T12:01:42;49.20;;;19.25;;
36383;SDS011;22418;51.210;6.976;2022-12-17T12:05:03;49.80;;;19.38;;
36383;SDS011;22418;51.210;6.976;2022-12-17T12:11:10;53.45;;;20.25;;
36383;SDS011;22418;51.210;6.976;2022-12-17T12:17:28;56.95;;;21.73;;
36383;SDS011;22418;51.210;6.976;2022-12-17T12:23:25;51.70;;;20.45;;
36383;SDS011;22418;51.210;6.976;2022-12-17T12:26:42;48.90;;;20.08;;
36383;SDS011;22418;51.210;6.976;2022-12-17T12:41:55;48.13;;;18.85;;
36383;SDS011;22418;51.210;6.976;2022-12-17T12:44:54;55.45;;;20.55;;
36383;SDS011;22418;51.210;6.976;2022-12-17T12:47:58;49.13;;;19.48;;
36383;SDS011;22418;51.210;6.976;2022-12-17T12:54:00;53.55;;;21.27;;
36383;SDS011;22418;51.210;6.976;2022-12-17T12:57:24;51.92;;;21.13;;
36383;SDS011;22418;51.210;6.976;2022-12-17T13:00:25;45.70;;;19.95;;
36383;SDS011;22418;51.210;6.976;2022-12-17T13:03:26;52.25;;;20.75;;
36383;SDS011;22418;51.210;6.976;2022-12-17T13:14:33;51.28;;;20.75;;
36383;SDS011;22418;51.210;6.976;2022-12-17T13:19:57;48.50;;;20.77;;
36383;SDS011;22418;51.210;6.976;2022-12-17T13:22:29;52.30;;;21.77;;
36383;SDS011;22418;51.210;6.976;2022-12-17T13:25:35;46.75;;;20.67;;
36383;SDS011;22418;51.210;6.976;2022-12-17T13:27:59;52.13;;;20.92;;
36383;SDS011;22418;51.210;6.976;2022-12-17T13:30:36;48.57;;;20.27;;
36383;SDS011;22418;51.210;6.976;2022-12-17T13:33:20;49.55;;;21.33;;
36383;SDS011;22418;51.210;6.976;2022-12-17T13:41:52;50.13;;;21.55;;
36383;SDS011;22418;51.210;6.976;2022-12-17T13:44:26;47.45;;;19.98;;
36383;SDS011;22418;51.210;6.976;2022-12-17T13:47:04;49.92;;;20.55;;
36383;SDS011;22418;51.210;6.976;2022-12-17T13:49:35;50.00;;;19.77;;
36383;SDS011;22418;51.210;6.976;2022-12-17T13:52:13;46.77;;;21.33;;
36383;SDS011;22418;51.210;6.976;2022-12-17T13:54:46;52.40;;;20.88;;
36383;SDS011;22418;51.210;6.976;2022-12-17T13:57:24;49.85;;;21.00;;
36383;SDS011;22418;51.210;6.976;2022-12-17T13:59:56;45.15;;;19.40;;
36383;SDS011;22418;51.210;6.976;2022-12-17T14:02:29;49.05;;;20.33;;
36383;SDS011;22418;51.210;6.976;2022-12-17T14:05:03;52.35;;;20.25;;
36383;SDS011;22418;51.210;6.976;2022-12-17T14:07:50;48.92;;;20.15;;
36383;SDS011;22418;51.210;6.976;2022-12-17T14:10:21;43.00;;;19.00;;
36383;SDS011;22418;51.210;6.976;2022-12-17T14:12:57;45.33;;;19.23;;
36383;SDS011;22418;51.210;6.976;2022-12-17T14:15:34;43.72;;;17.90;;
36383;SDS011;22418;51.210;6.976;2022-12-17T14:18:08;45.92;;;19.02;;
36383;SDS011;22418;51.210;6.976;2022-12-17T14:20:43;45.97;;;18.77;;
36383;SDS011;22418;51.210;6.976;2022-12-17T14:25:48;42.33;;;17.88;;
36383;SDS011;22418;51.210;6.976;2022-12-17T14:30:50;40.03;;;17.53;;
36383;SDS011;22418;51.210;6.976;2022-12-17T14:35:57;48.40;;;18.30;;
36383;SDS011;22418;51.210;6.976;2022-12-17T14:38:30;47.92;;;20.30;;
36383;SDS011;22418;51.210;6.976;2022-12-17T14:43:55;44.67;;;17.63;;
36383;SDS011;22418;51.210;6.976;2022-12-17T14:46:28;43.38;;;18.30;;
36383;SDS011;22418;51.210;6.976;2022-12-17T14:49:00;43.45;;;18.35;;
36383;SDS011;22418;51.210;6.976;2022-12-17T14:51:35;42.75;;;17.30;;
36383;SDS011;22418;51.210;6.976;2022-12-17T14:56:58;40.72;;;16.58;;
36383;SDS011;22418;51.210;6.976;2022-12-17T14:59:30;38.67;;;16.92;;
36383;SDS011;22418;51.210;6.976;2022-12-17T15:04:39;37.92;;;15.52;;
36383;SDS011;22418;51.210;6.976;2022-12-17T15:07:11;46.37;;;17.10;;
36383;SDS011;22418;51.210;6.976;2022-12-17T15:09:46;49.80;;;21.05;;
36383;SDS011;22418;51.210;6.976;2022-12-17T15:12:16;39.60;;;16.40;;
36383;SDS011;22418;51.210;6.976;2022-12-17T15:17:18;40.77;;;17.17;;
36383;SDS011;22418;51.210;6.976;2022-12-17T15:19:49;34.50;;;16.23;;
36383;SDS011;22418;51.210;6.976;2022-12-17T15:22:19;39.25;;;16.77;;
36383;SDS011;22418;51.210;6.976;2022-12-17T15:24:50;42.67;;;17.80;;
36383;SDS011;22418;51.210;6.976;2022-12-17T15:27:20;41.08;;;16.48;;
36383;SDS011;22418;51.210;6.976;2022-12-17T15:29:51;39.83;;;17.50;;
36383;SDS011;22418;51.210;6.976;2022-12-17T15:32:22;38.73;;;16.33;;
36383;SDS011;22418;51.210;6.976;2022-12-17T15:34:53;46.13;;;18.13;;
36383;SDS011;22418;51.210;6.976;2022-12-17T15:37:23;43.40;;;17.53;;
36383;SDS011;22418;51.210;6.976;2022-12-17T15:39:54;41.33;;;17.30;;
36383;SDS011;22418;51.210;6.976;2022-12-17T15:42:27;39.45;;;17.13;;
36383;SDS011;22418;51.210;6.976;2022-12-17T15:45:16;38.33;;;15.70;;
36383;SDS011;22418;51.210;6.976;2022-12-17T15:47:47;44.40;;;17.87;;
36383;SDS011;22418;51.210;6.976;2022-12-17T15:50:17;37.40;;;17.20;;
36383;SDS011;22418;51.210;6.976;2022-12-17T15:52:48;50.15;;;17.15;;
36383;SDS011;22418;51.210;6.976;2022-12-17T15:55:19;39.15;;;16.50;;
36383;SDS011;22418;51.210;6.976;2022-12-17T15:57:52;44.13;;;18.00;;
36383;SDS011;22418;51.210;6.976;2022-12-17T16:00:22;39.37;;;17.10;;
36383;SDS011;22418;51.210;6.976;2022-12-17T16:02:53;38.45;;;16.92;;
36383;SDS011;22418;51.210;6.976;2022-12-17T16:05:24;37.58;;;16.58;;
36383;SDS011;22418;51.210;6.976;2022-12-17T16:07:54;39.73;;;17.07;;
36383;SDS011;22418;51.210;6.976;2022-12-17T16:10:28;37.40;;;17.48;;
36383;SDS011;22418;51.210;6.976;2022-12-17T16:12:58;42.67;;;17.98;;
36383;SDS011;22418;51.210;6.976;2022-12-17T16:15:29;39.75;;;17.42;;
36383;SDS011;22418;51.210;6.976;2022-12-17T16:18:00;41.90;;;17.00;;
36383;SDS011;22418;51.210;6.976;2022-12-17T16:20:30;43.63;;;17.33;;
36383;SDS011;22418;51.210;6.976;2022-12-17T16:23:01;37.33;;;17.10;;
36383;SDS011;22418;51.210;6.976;2022-12-17T16:25:32;36.87;;;16.73;;
36383;SDS011;22418;51.210;6.976;2022-12-17T16:28:02;35.70;;;16.97;;
36383;SDS011;22418;51.210;6.976;2022-12-17T16:30:33;41.65;;;17.63;;
36383;SDS011;22418;51.210;6.976;2022-12-17T16:33:03;39.30;;;17.00;;
36383;SDS011;22418;51.210;6.976;2022-12-17T16:35:34;39.35;;;17.83;;
36383;SDS011;22418;51.210;6.976;2022-12-17T16:38:05;48.42;;;19.88;;
36383;SDS011;22418;51.210;6.976;2022-12-17T16:40:36;50.00;;;19.50;;
36383;SDS011;22418;51.210;6.976;2022-12-17T16:43:07;47.00;;;20.42;;
36383;SDS011;22418;51.210;6.976;2022-12-17T16:45:45;50.42;;;20.50;;
36383;SDS011;22418;51.210;6.976;2022-12-17T16:48:17;46.17;;;20.27;;
36383;SDS011;22418;51.210;6.976;2022-12-17T16:53:19;39.53;;;17.85;;
36383;SDS011;22418;51.210;6.976;2022-12-17T16:55:50;44.70;;;19.67;;
36383;SDS011;22418;51.210;6.976;2022-12-17T16:58:20;47.87;;;19.23;;
36383;SDS011;22418;51.210;6.976;2022-12-17T17:00:54;47.67;;;18.53;;
36383;SDS011;22418;51.210;6.976;2022-12-17T17:03:24;39.47;;;17.40;;
36383;SDS011;22418;51.210;6.976;2022-12-17T17:05:58;40.97;;;17.23;;
36383;SDS011;22418;51.210;6.976;2022-12-17T17:08:29;40.60;;;16.77;;
36383;SDS011;22418;51.210;6.976;2022-12-17T17:11:10;34.63;;;15.20;;
36383;SDS011;22418;51.210;6.976;2022-12-17T17:13:44;35.72;;;16.15;;
36383;SDS011;22418;51.210;6.976;2022-12-17T17:16:15;42.77;;;17.00;;
36383;SDS011;22418;51.210;6.976;2022-12-17T17:18:46;36.88;;;14.85;;
36383;SDS011;22418;51.210;6.976;2022-12-17T17:24:01;31.73;;;13.85;;
36383;SDS011;22418;51.210;6.976;2022-12-17T17:26:39;33.38;;;15.07;;
36383;SDS011;22418;51.210;6.976;2022-12-17T17:29:09;33.03;;;15.48;;
36383;SDS011;22418;51.210;6.976;2022-12-17T17:31:40;38.17;;;14.43;;
36383;SDS011;22418;51.210;6.976;2022-12-17T17:34:12;37.03;;;15.32;;
36383;SDS011;22418;51.210;6.976;2022-12-17T17:36:43;33.80;;;14.35;;
36383;SDS011;22418;51.210;6.976;2022-12-17T17:39:13;36.90;;;14.98;;
36383;SDS011;22418;51.210;6.976;2022-12-17T17:41:44;36.97;;;14.23;;
36383;SDS011;22418;51.210;6.976;2022-12-17T17:44:15;35.27;;;15.07;;
36383;SDS011;22418;51.210;6.976;2022-12-17T17:46:45;34.97;;;15.40;;
36383;SDS011;22418;51.210;6.976;2022-12-17T17:49:16;34.03;;;14.37;;
36383;SDS011;22418;51.210;6.976;2022-12-17T17:51:46;34.05;;;14.27;;